Time;durP1;ratioP1;P1;durP2;ratioP2;P2;SDS_P1;SDS_P2;PMS_P1;PMS_P2;Temp;Humidity;BMP_temperature;BMP_pressure;BME280_temperature;BME280_humidity;BME280_pressure;Samples;Min_cycle;Max_cycle;Signal;HPM_P1;HPM_P2
2023/06/23 00:01:24;;;;;;;3.47;1.17;;;;;;;;;;4986453;28;20042;-61
2023/06/23 00:03:53;;;;;;;3.70;1.00;;;;;;;;;;4986494;28;20707;-63
2023/06/23 00:06:20;;;;;;;3.15;1.10;;;;;;;;;;4986941;28;20621;-62
2023/06/23 00:08:47;;;;;;;2.75;1.02;;;;;;;;;;4975166;28;20050;-64
2023/06/23 00:11:14;;;;;;;6.55;1.38;;;;;;;;;;4989722;28;21409;-63
2023/06/23 00:13:40;;;;;;;3.55;1.35;;;;;;;;;;4989625;28;20142;-65
2023/06/23 00:16:07;;;;;;;3.88;1.38;;;;;;;;;;4989185;28;20092;-64
2023/06/23 00:18:39;;;;;;;5.72;1.17;;;;;;;;;;4986858;28;20478;-64
2023/06/23 00:21:07;;;;;;;2.78;0.90;;;;;;;;;;4988547;28;20121;-62
2023/06/23 00:23:33;;;;;;;3.53;0.90;;;;;;;;;;4983779;28;21312;-64
2023/06/23 00:26:01;;;;;;;3.25;0.90;;;;;;;;;;4984756;28;20045;-65
2023/06/23 00:28:28;;;;;;;2.58;0.80;;;;;;;;;;4984181;28;22215;-63
2023/06/23 00:30:54;;;;;;;2.90;1.10;;;;;;;;;;4986855;28;22508;-66
2023/06/23 00:33:21;;;;;;;3.60;0.95;;;;;;;;;;4985500;28;20141;-64
2023/06/23 00:35:48;;;;;;;2.72;0.90;;;;;;;;;;4986041;28;20104;-65
2023/06/23 00:38:15;;;;;;;2.55;1.00;;;;;;;;;;4985902;28;20047;-65
2023/06/23 00:40:42;;;;;;;3.40;0.90;;;;;;;;;;4982538;28;20049;-63
2023/06/23 00:43:08;;;;;;;2.80;0.90;;;;;;;;;;4984098;28;20088;-65
2023/06/23 00:45:35;;;;;;;5.82;2.65;;;;;;;;;;4984403;28;20046;-64
2023/06/23 00:48:04;;;;;;;3.05;0.98;;;;;;;;;;4985335;28;20080;-67
2023/06/23 00:50:31;;;;;;;3.55;1.00;;;;;;;;;;4982862;28;20037;-65
2023/06/23 00:53:00;;;;;;;4.40;1.00;;;;;;;;;;4984264;28;20124;-65
2023/06/23 00:55:28;;;;;;;5.82;0.88;;;;;;;;;;4983804;28;20152;-65
2023/06/23 00:57:55;;;;;;;3.92;1.38;;;;;;;;;;4983055;28;20663;-65
2023/06/23 01:00:22;;;;;;;3.47;0.80;;;;;;;;;;4984672;28;20122;-65
2023/06/23 01:02:50;;;;;;;6.20;1.00;;;;;;;;;;4981139;28;20122;-65
2023/06/23 01:05:18;;;;;;;4.05;1.02;;;;;;;;;;4986067;28;20050;-65
2023/06/23 01:07:50;;;;;;;2.72;1.02;;;;;;;;;;4992011;28;20053;-66
2023/06/23 01:10:32;;;;;;;3.00;1.05;;;;;;;;;;4992956;28;20031;-64
2023/06/23 01:13:03;;;;;;;4.17;1.00;;;;;;;;;;4987621;28;20945;-69
2023/06/23 01:15:34;;;;;;;2.50;0.90;;;;;;;;;;4991230;28;20058;-65
2023/06/23 01:18:20;;;;;;;3.20;0.90;;;;;;;;;;4991478;28;20038;-67
2023/06/23 01:20:47;;;;;;;2.95;0.98;;;;;;;;;;4993938;28;20107;-65
2023/06/23 01:23:23;;;;;;;2.97;0.90;;;;;;;;;;4996045;28;20624;-67
2023/06/23 01:25:56;;;;;;;3.60;1.10;;;;;;;;;;4996054;28;20490;-64
2023/06/23 01:28:22;;;;;;;;;;;;;;;;;;4996370;28;20061;-65
2023/06/23 01:30:53;;;;;;;3.67;1.10;;;;;;;;;;4997224;28;19983;-64
2023/06/23 01:33:23;;;;;;;5.15;1.17;;;;;;;;;;4994534;28;20448;-68
2023/06/23 01:35:56;;;;;;;7.07;1.05;;;;;;;;;;4977313;28;20220;-65
2023/06/23 01:38:27;;;;;;;5.22;1.10;;;;;;;;;;4992199;28;20049;-66
2023/06/23 01:40:56;;;;;;;5.57;1.00;;;;;;;;;;4993969;28;20154;-65
2023/06/23 01:43:29;;;;;;;5.55;1.17;;;;;;;;;;4990615;28;20046;-66
2023/06/23 01:46:03;;;;;;;5.72;0.90;;;;;;;;;;4992045;28;20033;-64
2023/06/23 01:48:32;;;;;;;3.75;0.90;;;;;;;;;;4990155;28;20153;-65
2023/06/23 01:51:02;;;;;;;3.17;0.88;;;;;;;;;;4992176;28;20092;-68
2023/06/23 01:53:31;;;;;;;6.40;1.20;;;;;;;;;;4991125;28;20042;-64
2023/06/23 01:56:00;;;;;;;3.05;0.90;;;;;;;;;;4992387;28;20049;-65
2023/06/23 01:58:27;;;;;;;8.82;1.10;;;;;;;;;;4991075;28;20041;-65
2023/06/23 02:00:54;;;;;;;2.90;1.00;;;;;;;;;;4993139;28;20125;-66
2023/06/23 02:03:21;;;;;;;3.10;1.00;;;;;;;;;;4992733;28;20094;-64
2023/06/23 02:05:49;;;;;;;3.75;1.30;;;;;;;;;;4990896;28;20073;-65
2023/06/23 02:08:16;;;;;;;3.72;1.00;;;;;;;;;;4990740;28;20042;-65
2023/06/23 02:10:43;;;;;;;4.82;1.08;;;;;;;;;;4972254;28;20053;-64
2023/06/23 02:13:11;;;;;;;4.00;1.10;;;;;;;;;;4989842;28;20042;-62
2023/06/23 02:15:39;;;;;;;2.72;1.08;;;;;;;;;;4990064;28;20050;-64
2023/06/23 02:18:08;;;;;;;2.80;0.80;;;;;;;;;;4993321;28;20038;-65
2023/06/23 02:20:37;;;;;;;3.28;0.90;;;;;;;;;;4997934;28;20103;-66
2023/06/23 02:23:03;;;;;;;4.13;1.02;;;;;;;;;;4994696;28;20041;-65
2023/06/23 02:25:30;;;;;;;2.75;0.90;;;;;;;;;;4989754;28;20928;-63
2023/06/23 02:27:58;;;;;;;3.15;1.00;;;;;;;;;;4989898;28;20054;-63
2023/06/23 02:30:24;;;;;;;4.10;1.38;;;;;;;;;;4989574;28;20038;-62
2023/06/23 02:32:51;;;;;;;3.30;1.00;;;;;;;;;;4988341;28;20502;-63
2023/06/23 02:35:18;;;;;;;2.92;1.08;;;;;;;;;;4992238;28;20081;-62
2023/06/23 02:37:50;;;;;;;3.08;0.95;;;;;;;;;;4994047;28;20052;-62
2023/06/23 02:40:18;;;;;;;3.47;1.13;;;;;;;;;;4994299;28;20068;-64
2023/06/23 02:42:54;;;;;;;6.78;1.35;;;;;;;;;;4990211;28;20422;-63
2023/06/23 02:45:24;;;;;;;3.10;1.00;;;;;;;;;;4991985;28;20066;-64
2023/06/23 02:47:53;;;;;;;3.70;0.95;;;;;;;;;;4992066;28;20049;-63
2023/06/23 02:50:21;;;;;;;2.97;1.00;;;;;;;;;;4992010;28;20037;-62
2023/06/23 02:52:49;;;;;;;3.08;1.00;;;;;;;;;;4988544;28;20046;-63
2023/06/23 02:55:19;;;;;;;2.28;0.70;;;;;;;;;;4972521;28;20046;-62
2023/06/23 02:57:49;;;;;;;3.45;0.90;;;;;;;;;;4990460;28;20053;-63
2023/06/23 03:00:19;;;;;;;2.95;0.82;;;;;;;;;;4990278;28;20454;-63
2023/06/23 03:02:48;;;;;;;4.32;1.02;;;;;;;;;;4993126;28;20117;-63
2023/06/23 03:05:16;;;;;;;3.65;1.30;;;;;;;;;;4992035;28;20798;-62
2023/06/23 03:07:42;;;;;;;3.00;0.98;;;;;;;;;;4987776;28;20042;-61
2023/06/23 03:10:09;;;;;;;2.55;0.80;;;;;;;;;;4991109;28;20069;-63
2023/06/23 03:12:36;;;;;;;3.33;0.85;;;;;;;;;;4989110;28;20053;-63
2023/06/23 03:15:03;;;;;;;3.20;0.90;;;;;;;;;;4990979;28;20038;-63
2023/06/23 03:17:32;;;;;;;2.92;0.90;;;;;;;;;;4991394;28;20046;-63
2023/06/23 03:20:25;;;;;;;3.65;1.10;;;;;;;;;;4991175;28;20038;-63
2023/06/23 03:23:00;;;;;;;2.90;1.00;;;;;;;;;;4958618;28;20053;-64
2023/06/23 03:25:27;;;;;;;2.45;0.85;;;;;;;;;;4989722;28;20149;-61
2023/06/23 03:27:55;;;;;;;3.67;1.20;;;;;;;;;;4989045;28;20126;-63
2023/06/23 03:30:34;;;;;;;4.15;1.27;;;;;;;;;;4990868;28;20042;-63
2023/06/23 03:33:04;;;;;;;3.55;1.23;;;;;;;;;;4988187;28;20055;-61
2023/06/23 03:35:37;;;;;;;4.82;1.13;;;;;;;;;;4989137;28;20612;-61
2023/06/23 03:38:04;;;;;;;5.70;1.30;;;;;;;;;;4989613;28;20041;-63
2023/06/23 03:40:34;;;;;;;5.45;1.73;;;;;;;;;;4991823;28;20092;-63
2023/06/23 03:43:09;;;;;;;5.05;1.30;;;;;;;;;;4992017;28;20042;-64
2023/06/23 03:45:38;;;;;;;4.07;1.20;;;;;;;;;;4988904;28;20042;-63
2023/06/23 03:48:07;;;;;;;7.82;1.98;;;;;;;;;;4992257;28;21854;-64
2023/06/23 03:50:34;;;;;;;7.32;1.55;;;;;;;;;;4991690;28;20495;-65
2023/06/23 03:53:05;;;;;;;14.07;2.13;;;;;;;;;;4988977;28;20121;-63
2023/06/23 03:55:33;;;;;;;6.22;2.00;;;;;;;;;;4990266;28;20042;-63
2023/06/23 03:58:05;;;;;;;8.13;2.42;;;;;;;;;;4992639;28;20036;-62
2023/06/23 04:00:37;;;;;;;7.60;2.35;;;;;;;;;;4989873;28;20042;-60
2023/06/23 04:03:06;;;;;;;12.35;2.33;;;;;;;;;;4988659;28;20050;-62
2023/06/23 04:05:36;;;;;;;8.38;2.33;;;;;;;;;;4994696;28;20053;-59
2023/06/23 04:08:03;;;;;;;5.55;1.98;;;;;;;;;;4967635;28;20571;-62
2023/06/23 04:10:30;;;;;;;7.82;2.30;;;;;;;;;;4966836;28;20041;-61
2023/06/23 04:12:58;;;;;;;7.90;2.22;;;;;;;;;;4964753;28;20046;-61
2023/06/23 04:15:25;;;;;;;5.57;2.00;;;;;;;;;;4966928;28;20054;-61
2023/06/23 04:17:54;;;;;;;15.88;6.03;;;;;;;;;;4968328;28;20046;-61
2023/06/23 04:20:22;;;;;;;11.13;5.40;;;;;;;;;;4965078;28;20090;-60
2023/06/23 04:22:49;;;;;;;10.88;3.80;;;;;;;;;;4948079;28;20195;-59
2023/06/23 04:25:17;;;;;;;4.35;1.88;;;;;;;;;;4966595;28;20125;-58
2023/06/23 04:27:45;;;;;;;15.77;2.42;;;;;;;;;;4949136;28;20113;-59
2023/06/23 04:30:12;;;;;;;7.70;2.20;;;;;;;;;;4966260;28;20065;-61
2023/06/23 04:32:39;;;;;;;4.53;1.90;;;;;;;;;;4962728;28;20042;-59
2023/06/23 04:35:06;;;;;;;5.80;2.17;;;;;;;;;;4964239;28;20061;-62
2023/06/23 04:37:45;;;;;;;8.05;2.05;;;;;;;;;;4965179;28;20034;-60
2023/06/23 04:40:20;;;;;;;6.80;2.15;;;;;;;;;;4990809;28;20087;-60
2023/06/23 04:42:53;;;;;;;9.23;2.70;;;;;;;;;;4992043;28;20132;-62
2023/06/23 04:45:21;;;;;;;13.10;3.17;;;;;;;;;;4992818;28;20486;-62
2023/06/23 04:47:54;;;;;;;8.80;2.90;;;;;;;;;;4990058;28;20561;-63
2023/06/23 04:50:21;;;;;;;12.10;3.17;;;;;;;;;;4992341;28;20046;-64
2023/06/23 04:53:13;;;;;;;11.25;3.60;;;;;;;;;;4966688;28;20047;-61
2023/06/23 04:55:40;;;;;;;11.48;3.58;;;;;;;;;;4951554;28;20062;-62
2023/06/23 04:58:09;;;;;;;9.07;3.80;;;;;;;;;;4960473;28;20075;-63
2023/06/23 05:00:37;;;;;;;13.52;4.25;;;;;;;;;;4953598;28;20038;-63
2023/06/23 05:03:04;;;;;;;9.82;3.50;;;;;;;;;;4967227;28;20038;-61
2023/06/23 05:05:32;;;;;;;8.85;3.55;;;;;;;;;;4967458;28;20038;-60
2023/06/23 05:07:59;;;;;;;8.18;3.72;;;;;;;;;;4969523;28;20074;-61
2023/06/23 05:10:28;;;;;;;9.50;3.47;;;;;;;;;;4968411;28;20042;-61
2023/06/23 05:12:56;;;;;;;8.95;3.22;;;;;;;;;;4968643;28;20090;-63
2023/06/23 05:15:24;;;;;;;9.32;3.22;;;;;;;;;;4967491;28;20110;-62
2023/06/23 05:17:52;;;;;;;10.77;3.30;;;;;;;;;;4968993;28;20054;-63
2023/06/23 05:20:20;;;;;;;9.35;3.75;;;;;;;;;;4970182;28;20050;-60
2023/06/23 05:22:49;;;;;;;8.43;3.22;;;;;;;;;;4970199;28;20153;-62
2023/06/23 05:25:17;;;;;;;11.13;3.78;;;;;;;;;;4967983;28;20039;-62
2023/06/23 05:27:45;;;;;;;11.80;3.65;;;;;;;;;;4968158;28;20051;-62
2023/06/23 05:30:16;;;;;;;9.63;3.35;;;;;;;;;;4961867;28;20038;-60
2023/06/23 05:32:43;;;;;;;9.50;3.33;;;;;;;;;;4990042;28;20095;-61
2023/06/23 05:35:11;;;;;;;11.70;3.55;;;;;;;;;;4990771;28;20216;-61
2023/06/23 05:37:38;;;;;;;12.73;3.00;;;;;;;;;;4991477;28;20196;-64
2023/06/23 05:40:07;;;;;;;9.57;2.90;;;;;;;;;;4994273;28;20042;-61
2023/06/23 05:42:33;;;;;;;9.70;2.95;;;;;;;;;;4990062;28;20542;-61
2023/06/23 05:45:03;;;;;;;9.32;2.58;;;;;;;;;;4991601;28;20126;-63
2023/06/23 05:47:32;;;;;;;11.30;2.78;;;;;;;;;;4990933;28;20069;-59
2023/06/23 05:50:01;;;;;;;7.72;2.75;;;;;;;;;;4989177;28;20045;-60
2023/06/23 05:52:29;;;;;;;10.10;3.03;;;;;;;;;;4990345;28;20422;-63
2023/06/23 05:54:57;;;;;;;8.35;2.83;;;;;;;;;;4992951;28;20049;-62
2023/06/23 05:57:28;;;;;;;6.35;2.38;;;;;;;;;;4990029;28;20042;-62
2023/06/23 05:59:59;;;;;;;5.95;2.65;;;;;;;;;;4991609;28;20053;-61
2023/06/23 06:02:28;;;;;;;10.30;2.67;;;;;;;;;;4988933;28;20072;-60
2023/06/23 06:04:56;;;;;;;12.68;2.40;;;;;;;;;;4992546;28;20047;-62
2023/06/23 06:07:23;;;;;;;8.27;2.15;;;;;;;;;;4986969;28;20647;-61
2023/06/23 06:09:50;;;;;;;8.43;2.08;;;;;;;;;;4992902;28;20043;-63
2023/06/23 06:12:17;;;;;;;8.60;2.40;;;;;;;;;;4990969;28;20062;-61
2023/06/23 06:14:44;;;;;;;12.68;2.50;;;;;;;;;;4991416;28;20046;-60
2023/06/23 06:17:14;;;;;;;7.93;2.40;;;;;;;;;;4990999;28;20104;-63
2023/06/23 06:19:41;;;;;;;6.80;2.05;;;;;;;;;;4980630;28;20052;-60
2023/06/23 06:22:10;;;;;;;9.35;2.50;;;;;;;;;;5002181;28;20038;-62
2023/06/23 06:24:37;;;;;;;7.20;2.42;;;;;;;;;;4991842;28;20041;-62
2023/06/23 06:27:05;;;;;;;10.23;2.40;;;;;;;;;;4990695;28;20056;-60
2023/06/23 06:29:33;;;;;;;7.30;2.20;;;;;;;;;;4990242;28;20046;-61
2023/06/23 06:32:00;;;;;;;7.68;2.20;;;;;;;;;;4990250;28;20042;-61
2023/06/23 06:34:27;;;;;;;6.43;1.95;;;;;;;;;;4991340;28;21183;-60
2023/06/23 06:36:55;;;;;;;6.25;2.13;;;;;;;;;;4990142;28;20051;-62
2023/06/23 06:39:22;;;;;;;8.75;2.20;;;;;;;;;;4990556;28;20042;-62
2023/06/23 06:41:50;;;;;;;7.22;2.20;;;;;;;;;;4991104;28;20125;-62
2023/06/23 06:44:17;;;;;;;7.22;2.10;;;;;;;;;;4991150;28;20072;-61
2023/06/23 06:46:44;;;;;;;5.82;1.60;;;;;;;;;;4988625;28;21745;-62
2023/06/23 06:49:12;;;;;;;7.80;1.90;;;;;;;;;;4991408;28;20082;-61
2023/06/23 06:51:41;;;;;;;4.63;1.63;;;;;;;;;;4989192;28;20418;-63
2023/06/23 06:54:07;;;;;;;6.18;1.95;;;;;;;;;;4989143;28;20066;-61
2023/06/23 06:56:35;;;;;;;5.68;2.05;;;;;;;;;;4988716;28;20518;-63
2023/06/23 06:59:02;;;;;;;12.00;2.17;;;;;;;;;;4991437;28;20038;-63
2023/06/23 07:01:29;;;;;;;7.90;1.75;;;;;;;;;;4991916;28;20054;-61
2023/06/23 07:03:57;;;;;;;6.57;1.85;;;;;;;;;;4988562;28;20962;-60
2023/06/23 07:06:23;;;;;;;4.15;1.63;;;;;;;;;;4986228;28;20038;-63
2023/06/23 07:08:50;;;;;;;6.95;2.08;;;;;;;;;;4991858;28;20045;-61
2023/06/23 07:11:17;;;;;;;6.53;1.52;;;;;;;;;;4985912;28;20117;-65
2023/06/23 07:13:43;;;;;;;8.38;1.70;;;;;;;;;;4996324;28;20042;-60
2023/06/23 07:16:10;;;;;;;8.50;1.77;;;;;;;;;;4989952;28;20147;-60
2023/06/23 07:18:36;;;;;;;8.95;1.70;;;;;;;;;;4988323;28;20038;-62
2023/06/23 07:21:04;;;;;;;4.68;1.70;;;;;;;;;;4991230;28;20043;-63
2023/06/23 07:23:31;;;;;;;5.68;1.60;;;;;;;;;;4989566;28;20097;-59
2023/06/23 07:25:58;;;;;;;6.55;1.70;;;;;;;;;;4991419;28;20057;-64
2023/06/23 07:28:24;;;;;;;5.15;1.80;;;;;;;;;;4989914;28;20053;-60
2023/06/23 07:30:51;;;;;;;4.95;1.60;;;;;;;;;;4991499;28;20037;-61
2023/06/23 07:33:18;;;;;;;9.65;1.88;;;;;;;;;;4990298;28;20123;-63
2023/06/23 07:35:44;;;;;;;4.72;1.60;;;;;;;;;;4987068;28;20050;-60
2023/06/23 07:38:31;;;;;;;5.22;2.10;;;;;;;;;;4967401;28;20080;-62
2023/06/23 07:40:58;;;;;;;4.57;1.92;;;;;;;;;;4972007;28;20122;-60
2023/06/23 07:43:24;;;;;;;5.32;2.00;;;;;;;;;;4972013;28;20054;-62
2023/06/23 07:45:51;;;;;;;7.78;2.55;;;;;;;;;;4973218;28;20108;-59
2023/06/23 07:48:18;;;;;;;6.20;2.20;;;;;;;;;;4968884;28;20376;-60
2023/06/23 07:50:46;;;;;;;6.22;1.73;;;;;;;;;;4968938;28;20031;-62
2023/06/23 07:53:12;;;;;;;6.80;2.00;;;;;;;;;;4969856;28;20047;-60
2023/06/23 07:55:39;;;;;;;8.52;2.35;;;;;;;;;;4969908;28;20549;-60
2023/06/23 07:58:05;;;;;;;4.72;1.80;;;;;;;;;;4972335;28;20038;-62
2023/06/23 08:00:32;;;;;;;5.40;2.05;;;;;;;;;;4973119;28;20034;-60
2023/06/23 08:02:59;;;;;;;6.78;2.20;;;;;;;;;;4971241;28;20613;-61
2023/06/23 08:05:25;;;;;;;5.32;1.80;;;;;;;;;;4972915;28;20050;-64
2023/06/23 08:07:52;;;;;;;5.00;1.75;;;;;;;;;;4972076;28;20050;-60
2023/06/23 08:10:18;;;;;;;6.05;2.05;;;;;;;;;;4971234;28;20054;-60
2023/06/23 08:12:45;;;;;;;7.18;2.00;;;;;;;;;;4971345;28;20043;-62
2023/06/23 08:15:12;;;;;;;9.65;2.17;;;;;;;;;;4974242;28;20062;-60
2023/06/23 08:17:39;;;;;;;5.43;1.88;;;;;;;;;;4992947;28;20065;-59
2023/06/23 08:20:06;;;;;;;6.45;2.15;;;;;;;;;;4994265;28;20053;-61
2023/06/23 08:22:32;;;;;;;6.32;2.20;;;;;;;;;;4992468;28;20410;-61
2023/06/23 08:24:59;;;;;;;7.35;2.08;;;;;;;;;;4990297;28;20049;-60
2023/06/23 08:27:26;;;;;;;6.07;1.98;;;;;;;;;;4980768;28;21825;-62
2023/06/23 08:29:52;;;;;;;4.50;1.98;;;;;;;;;;4993013;28;20044;-61
2023/06/23 08:32:19;;;;;;;7.00;2.00;;;;;;;;;;4993647;28;20049;-60
2023/06/23 08:34:45;;;;;;;7.35;1.90;;;;;;;;;;4992194;28;20038;-63
2023/06/23 08:37:12;;;;;;;6.50;1.90;;;;;;;;;;4994922;28;20054;-60
2023/06/23 08:39:39;;;;;;;4.70;1.92;;;;;;;;;;4992556;28;20085;-61
2023/06/23 08:42:05;;;;;;;7.82;1.92;;;;;;;;;;4992815;28;20104;-63
2023/06/23 08:44:33;;;;;;;4.90;2.08;;;;;;;;;;4992799;28;20567;-63
2023/06/23 08:47:02;;;;;;;8.77;2.10;;;;;;;;;;4992878;28;20119;-61
2023/06/23 08:49:31;;;;;;;6.55;2.00;;;;;;;;;;4990667;28;20104;-63
2023/06/23 08:51:58;;;;;;;6.40;1.90;;;;;;;;;;4990797;28;20053;-62
2023/06/23 08:54:25;;;;;;;7.95;2.00;;;;;;;;;;4992505;28;20037;-61
2023/06/23 08:56:51;;;;;;;7.82;2.17;;;;;;;;;;4992764;28;20045;-63
2023/06/23 08:59:18;;;;;;;7.30;2.03;;;;;;;;;;4993447;28;20114;-63
2023/06/23 09:01:45;;;;;;;5.00;1.80;;;;;;;;;;4988482;28;20061;-59
2023/06/23 09:04:11;;;;;;;7.60;2.10;;;;;;;;;;4991292;28;20049;-61
2023/06/23 09:06:38;;;;;;;4.57;1.70;;;;;;;;;;4989873;28;20061;-61
2023/06/23 09:09:04;;;;;;;7.57;2.00;;;;;;;;;;4988822;28;20232;-60
2023/06/23 09:11:31;;;;;;;5.28;2.00;;;;;;;;;;4992123;28;20439;-63
2023/06/23 09:14:00;;;;;;;6.03;1.95;;;;;;;;;;4991779;28;20038;-61
2023/06/23 09:16:27;;;;;;;6.63;1.83;;;;;;;;;;4994994;28;20466;-61
2023/06/23 09:18:54;;;;;;;5.20;1.83;;;;;;;;;;4989334;28;20036;-63
2023/06/23 09:21:21;;;;;;;7.82;2.13;;;;;;;;;;4988603;28;20557;-62
2023/06/23 09:23:58;;;;;;;9.32;1.90;;;;;;;;;;4990066;28;20405;-60
2023/06/23 09:26:24;;;;;;;7.80;1.92;;;;;;;;;;4987769;28;20124;-60
2023/06/23 09:28:51;;;;;;;7.82;2.08;;;;;;;;;;4989497;28;20070;-62
2023/06/23 09:31:18;;;;;;;6.28;1.90;;;;;;;;;;4990704;28;20096;-62
2023/06/23 09:33:51;;;;;;;9.18;1.98;;;;;;;;;;4989644;28;20046;-60
2023/06/23 09:36:17;;;;;;;;;;;;;;;;;;4992881;28;20111;-61
2023/06/23 09:38:46;;;;;;;10.43;2.20;;;;;;;;;;4989048;28;20385;-63
2023/06/23 09:41:12;;;;;;;7.63;1.95;;;;;;;;;;4990356;28;20096;-62
2023/06/23 09:43:41;;;;;;;6.68;2.20;;;;;;;;;;4988845;28;21045;-60
2023/06/23 09:46:08;;;;;;;6.60;2.22;;;;;;;;;;4989420;28;20034;-60
2023/06/23 09:48:36;;;;;;;10.27;2.20;;;;;;;;;;4986212;28;20505;-60
2023/06/23 09:51:22;;;;;;;8.95;2.30;;;;;;;;;;4964868;28;20104;-63
2023/06/23 09:53:49;;;;;;;7.68;2.13;;;;;;;;;;4968349;28;20045;-63
2023/06/23 09:56:17;;;;;;;5.78;1.95;;;;;;;;;;4967364;28;20447;-63
2023/06/23 09:58:44;;;;;;;9.20;2.05;;;;;;;;;;4967354;28;20046;-61
2023/06/23 10:01:12;;;;;;;5.63;1.88;;;;;;;;;;4958332;28;20061;-61
2023/06/23 10:03:47;;;;;;;6.13;2.08;;;;;;;;;;4966223;28;20094;-60
2023/06/23 10:06:28;;;;;;;8.68;2.08;;;;;;;;;;4967237;28;20047;-61
2023/06/23 10:08:58;;;;;;;7.03;1.83;;;;;;;;;;4951298;28;20046;-61
2023/06/23 10:11:35;;;;;;;5.47;1.77;;;;;;;;;;4950767;28;20137;-66
2023/06/23 10:14:05;;;;;;;4.80;1.73;;;;;;;;;;4969393;28;20035;-63
2023/06/23 10:16:33;;;;;;;7.13;1.77;;;;;;;;;;4968911;28;20058;-63
2023/06/23 10:18:59;;;;;;;5.53;1.70;;;;;;;;;;4968650;28;20049;-62
2023/06/23 10:21:26;;;;;;;5.88;1.90;;;;;;;;;;4965429;28;20316;-63
2023/06/23 10:23:59;;;;;;;6.10;1.50;;;;;;;;;;4967217;28;20046;-60
2023/06/23 10:26:26;;;;;;;7.50;1.93;;;;;;;;;;4966583;28;20149;-62
2023/06/23 10:28:54;;;;;;;6.45;1.80;;;;;;;;;;4978657;28;20035;-58
2023/06/23 10:31:21;;;;;;;5.45;1.63;;;;;;;;;;4989963;28;20052;-60
2023/06/23 10:33:49;;;;;;;3.50;1.42;;;;;;;;;;4991221;28;20038;-60
2023/06/23 10:36:18;;;;;;;5.72;2.13;;;;;;;;;;4988981;28;20129;-59
2023/06/23 10:38:47;;;;;;;6.38;1.48;;;;;;;;;;4986659;28;20095;-60
2023/06/23 10:41:15;;;;;;;4.00;1.50;;;;;;;;;;4989925;28;20056;-59
2023/06/23 10:43:42;;;;;;;6.45;1.70;;;;;;;;;;4989761;28;20050;-60
2023/06/23 10:46:08;;;;;;;5.75;1.80;;;;;;;;;;4989999;28;20087;-62
2023/06/23 10:48:35;;;;;;;9.13;1.73;;;;;;;;;;4988819;28;20034;-61
2023/06/23 10:51:02;;;;;;;7.75;2.03;;;;;;;;;;4989137;28;20065;-60
2023/06/23 10:53:32;;;;;;;8.27;1.90;;;;;;;;;;4992083;28;20054;-60
2023/06/23 10:55:59;;;;;;;6.05;1.63;;;;;;;;;;4992498;28;20334;-61
2023/06/23 10:58:26;;;;;;;7.53;1.60;;;;;;;;;;4988908;28;20077;-63
2023/06/23 11:00:55;;;;;;;6.93;1.90;;;;;;;;;;4989509;28;20056;-62
2023/06/23 11:03:25;;;;;;;10.70;2.70;;;;;;;;;;4989907;28;20079;-64
2023/06/23 11:05:56;;;;;;;6.57;1.85;;;;;;;;;;4990725;28;20134;-60
2023/06/23 11:08:31;;;;;;;6.75;1.65;;;;;;;;;;4989422;28;20076;-63
2023/06/23 11:10:59;;;;;;;5.05;1.80;;;;;;;;;;4988887;28;20038;-63
2023/06/23 11:13:48;;;;;;;5.20;1.80;;;;;;;;;;4978779;28;20077;-61
2023/06/23 11:16:30;;;;;;;8.43;1.98;;;;;;;;;;4982015;28;20042;-61
2023/06/23 11:18:57;;;;;;;4.85;1.92;;;;;;;;;;4980194;28;20077;-62
2023/06/23 11:21:30;;;;;;;5.22;1.83;;;;;;;;;;4978583;28;20035;-61
2023/06/23 11:24:26;;;;;;;6.70;1.90;;;;;;;;;;4978472;28;20039;-60
2023/06/23 11:26:55;;;;;;;7.70;2.38;;;;;;;;;;4968852;28;20081;-62
2023/06/23 11:29:23;;;;;;;7.78;2.15;;;;;;;;;;4980047;28;20437;-62
2023/06/23 11:32:07;;;;;;;7.90;2.25;;;;;;;;;;4979505;28;20034;-60
2023/06/23 11:34:50;;;;;;;7.43;2.30;;;;;;;;;;4978296;28;20460;-60
2023/06/23 11:37:17;;;;;;;6.60;2.72;;;;;;;;;;4981016;28;20042;-62
2023/06/23 11:39:43;;;;;;;5.65;2.00;;;;;;;;;;4979951;28;20042;-60
2023/06/23 11:42:10;;;;;;;6.47;2.17;;;;;;;;;;4978944;28;20042;-61
2023/06/23 11:44:37;;;;;;;5.85;2.53;;;;;;;;;;4979860;28;20046;-59
2023/06/23 11:47:03;;;;;;;6.32;2.38;;;;;;;;;;4979784;28;20038;-61
2023/06/23 11:49:31;;;;;;;4.45;2.40;;;;;;;;;;4979473;28;20108;-58
2023/06/23 11:52:04;;;;;;;9.07;2.40;;;;;;;;;;4990904;28;20048;-60
2023/06/23 11:54:32;;;;;;;;;;;;;;;;;;4993436;28;20076;-61
2023/06/23 11:57:06;;;;;;;6.05;2.35;;;;;;;;;;4994657;28;19929;-64
2023/06/23 11:59:36;;;;;;;6.05;2.45;;;;;;;;;;4990603;28;20046;-59
2023/06/23 12:02:03;;;;;;;6.97;2.67;;;;;;;;;;4994178;28;20049;-60
2023/06/23 12:04:33;;;;;;;6.65;2.40;;;;;;;;;;4992471;28;20053;-60
2023/06/23 12:07:00;;;;;;;10.75;2.70;;;;;;;;;;4993223;28;20495;-59
2023/06/23 12:09:27;;;;;;;7.30;2.95;;;;;;;;;;4992301;28;20125;-63
2023/06/23 12:11:55;;;;;;;6.55;2.80;;;;;;;;;;4997495;28;20383;-62
2023/06/23 12:14:35;;;;;;;5.47;2.42;;;;;;;;;;4994589;28;20397;-63
2023/06/23 12:17:07;;;;;;;4.93;2.40;;;;;;;;;;4993352;28;20046;-60
2023/06/23 12:19:34;;;;;;;7.78;2.72;;;;;;;;;;4992322;28;20046;-60
2023/06/23 12:22:01;;;;;;;7.70;2.83;;;;;;;;;;4994981;28;20065;-63
2023/06/23 12:24:31;;;;;;;7.43;2.40;;;;;;;;;;4992700;28;20034;-60
2023/06/23 12:26:58;;;;;;;9.20;2.40;;;;;;;;;;4994569;28;20430;-62
2023/06/23 12:29:25;;;;;;;5.15;2.45;;;;;;;;;;4993413;28;20038;-62
2023/06/23 12:31:58;;;;;;;6.18;2.50;;;;;;;;;;4993097;28;20087;-60
2023/06/23 12:34:25;;;;;;;;;;;;;;;;;;4994506;28;20041;-59
2023/06/23 12:37:02;;;;;;;10.10;2.63;;;;;;;;;;4987832;28;20316;-59
2023/06/23 12:39:33;;;;;;;9.77;2.80;;;;;;;;;;4992927;28;20046;-60
2023/06/23 12:42:00;;;;;;;12.20;2.85;;;;;;;;;;4990563;28;20038;-58
2023/06/23 12:44:27;;;;;;;12.45;2.60;;;;;;;;;;4992358;28;20053;-63
2023/06/23 12:46:54;;;;;;;6.68;2.38;;;;;;;;;;4992105;28;21064;-62
2023/06/23 12:49:34;;;;;;;8.60;2.90;;;;;;;;;;4992717;28;20829;-65
2023/06/23 12:52:01;;;;;;;8.10;2.97;;;;;;;;;;4991796;28;20038;-62
2023/06/23 12:54:28;;;;;;;10.32;2.58;;;;;;;;;;4989459;28;20045;-60
2023/06/23 12:56:59;;;;;;;12.18;2.72;;;;;;;;;;4993149;28;20049;-64
2023/06/23 12:59:27;;;;;;;8.68;2.30;;;;;;;;;;4990383;28;20754;-60
2023/06/23 13:01:55;;;;;;;10.27;2.30;;;;;;;;;;4992443;28;20031;-60
2023/06/23 13:04:22;;;;;;;5.32;2.47;;;;;;;;;;4992069;28;20045;-66
2023/06/23 13:06:51;;;;;;;8.07;2.90;;;;;;;;;;4991267;28;20589;-59
2023/06/23 13:09:18;;;;;;;9.80;3.22;;;;;;;;;;4994825;28;20026;-64
2023/06/23 13:11:45;;;;;;;8.15;2.30;;;;;;;;;;4992913;28;20490;-62
2023/06/23 13:14:12;;;;;;;9.80;2.90;;;;;;;;;;4994052;28;20047;-61
2023/06/23 13:16:38;;;;;;;10.00;2.65;;;;;;;;;;4992006;28;20053;-64
2023/06/23 13:19:05;;;;;;;5.85;2.60;;;;;;;;;;4991172;28;20037;-60
2023/06/23 13:21:31;;;;;;;8.88;2.85;;;;;;;;;;4992351;28;20047;-62
2023/06/23 13:23:58;;;;;;;4.88;2.50;;;;;;;;;;4992253;28;20553;-64
2023/06/23 13:26:25;;;;;;;8.13;2.90;;;;;;;;;;4991253;28;20065;-63
2023/06/23 13:28:51;;;;;;;11.27;3.08;;;;;;;;;;4991959;28;20145;-61
2023/06/23 13:31:18;;;;;;;6.63;2.60;;;;;;;;;;4991156;28;20041;-62
2023/06/23 13:33:44;;;;;;;5.97;2.45;;;;;;;;;;4987227;28;20062;-61
2023/06/23 13:36:11;;;;;;;9.85;2.75;;;;;;;;;;4991439;28;20141;-63
2023/06/23 13:38:38;;;;;;;5.75;2.78;;;;;;;;;;4993267;28;20038;-63
2023/06/23 13:41:04;;;;;;;10.25;3.00;;;;;;;;;;4991984;28;20057;-63
2023/06/23 13:43:31;;;;;;;9.95;2.50;;;;;;;;;;4993494;28;20045;-62
2023/06/23 13:45:57;;;;;;;8.75;2.80;;;;;;;;;;4991467;28;20034;-61
2023/06/23 13:48:24;;;;;;;7.15;2.50;;;;;;;;;;4994032;28;20604;-62
2023/06/23 13:50:51;;;;;;;7.95;3.63;;;;;;;;;;4991366;28;20042;-63
2023/06/23 13:53:18;;;;;;;7.63;3.40;;;;;;;;;;4991523;28;20046;-62
2023/06/23 13:55:44;;;;;;;8.85;3.20;;;;;;;;;;4989118;28;20601;-62
2023/06/23 13:58:11;;;;;;;7.03;3.40;;;;;;;;;;4990278;28;20038;-61
2023/06/23 14:00:37;;;;;;;10.35;3.80;;;;;;;;;;4988645;28;20194;-61
2023/06/23 14:03:04;;;;;;;7.03;3.70;;;;;;;;;;4989892;28;20042;-61
2023/06/23 14:05:31;;;;;;;8.15;4.07;;;;;;;;;;4991361;28;20133;-63
2023/06/23 14:07:57;;;;;;;8.70;3.88;;;;;;;;;;4989325;28;20034;-63
2023/06/23 14:10:24;;;;;;;11.25;4.45;;;;;;;;;;4992633;28;20050;-63
2023/06/23 14:12:52;;;;;;;10.98;4.63;;;;;;;;;;4985036;28;20060;-63
2023/06/23 14:15:19;;;;;;;12.90;5.28;;;;;;;;;;5003359;28;20212;-62
2023/06/23 14:17:46;;;;;;;12.85;5.53;;;;;;;;;;4991369;28;20050;-61
2023/06/23 14:20:13;;;;;;;10.48;5.03;;;;;;;;;;4980818;28;20042;-61
2023/06/23 14:22:39;;;;;;;10.13;5.30;;;;;;;;;;4990924;28;20038;-63
2023/06/23 14:25:06;;;;;;;7.68;4.72;;;;;;;;;;4990191;28;20772;-62
2023/06/23 14:27:33;;;;;;;15.15;5.70;;;;;;;;;;4980583;28;20686;-61
2023/06/23 14:29:59;;;;;;;12.95;6.07;;;;;;;;;;4992732;28;20042;-63
2023/06/23 14:32:26;;;;;;;12.02;6.20;;;;;;;;;;4988721;28;20053;-63
2023/06/23 14:34:52;;;;;;;11.60;7.07;;;;;;;;;;4989341;28;20072;-61
2023/06/23 14:37:19;;;;;;;13.02;7.18;;;;;;;;;;4987339;28;20204;-63
2023/06/23 14:39:46;;;;;;;14.40;7.18;;;;;;;;;;4989008;28;20044;-63
2023/06/23 14:42:12;;;;;;;12.82;7.07;;;;;;;;;;4987583;28;20584;-61
2023/06/23 14:44:39;;;;;;;14.15;7.30;;;;;;;;;;4989582;28;20061;-62
2023/06/23 14:47:06;;;;;;;12.15;7.32;;;;;;;;;;4991509;28;20528;-62
2023/06/23 14:49:33;;;;;;;10.50;6.53;;;;;;;;;;4988716;28;20403;-63
2023/06/23 14:52:00;;;;;;;12.23;6.72;;;;;;;;;;4987902;28;20034;-64